Lake City, CO

12:18 AM MDT on September 24, 2014 (GMT -0600)
Lake City Heights | Change Station
CLOSE
Current Station
Personal Weather Station
Location: Lake City, CO
Elevation: 8858 ft
Nearby Weather Stations

Elev 8858 ft 38.02 °N, 107.31 °W | Updated 1 second ago

Clear
Clear
45.7 °F
Feels Like 43 °F
N
5.4
Wind Variable Wind from WSW
Gusts 5.4 mph

Today
High -- | Low -- °F
--% Chance of Precip.
Yesterday
High -- | Low -- °F
Precip. -- in
6:58 AM 7:03 PM
Waning Crescent, 0% visible
Pressure 30.43 in
Visibility 10.0 miles
Clouds Clear
Windchill 43 °F
Dew Point 30 °F
Humidity 54%
Rainfall 0.00 in
Snow Depth Not available.
UV 0 out of 12
Pollen 5.40 out of 12
Air Quality Not available.
Flu Activity Not available.
METAR KGUC 240555Z AUTO 00000KT 10SM CLR 09/04 A3043 RMK AO1 10200 20090 52014

More Conditions Fewer Conditions

Pressure 30.43 in
Visibility 10.0 miles
Clouds Clear
Windchill 43 °F
Dew Point 30 °F
Humidity 54%
Rainfall 0.00 in
Snow Depth Not available.
UV 0 out of 12
Pollen 5.40 out of 12
Air Quality Not available.
Flu Activity Not available.
METAR KGUC 240555Z AUTO 00000KT 10SM CLR 09/04 A3043 RMK AO1 10200 20090 52014

More Conditions Fewer Conditions

10-Day Weather Forecast

Almanac

Astronomy

Sep. 24, 2014 Rise Set
Actual Time 6:58 AM MDT 7:03 PM MDT
Civil Twilight 6:32 AM MDT 7:29 PM MDT
Nautical Twilight 6:01 AM MDT 7:59 PM MDT
Astronomical Twilight 5:30 AM MDT 8:30 PM MDT
Moon 7:21 AM MDT 7:16 PM MDT
Length of Visible Light 12h 56m
Length of Day
12h 04m
Tomorrow will be 2m 26s shorter.
Waning Crescent, 0% of the Moon is Illuminated
Today
Waning Crescent
Oct 1
First Quarter
Oct 8
Full
Oct 15
Last Quarter
Oct 23
New

Today's Extremes

State Highs State Lows

Community

WunderPhotos

Upload Photos

1,755,891 photos uploaded!

WunderBlogs® & News

Nearby

Snow Depth

Station Depth Elevation
Arapaho Ridge 1 in 10960 ft
Burro Mountain 0 in 9400 ft
North Lost Trail 0 in 9200 ft
Overland Reservoir 0 in 9880 ft
Crosho 0 in 9100 ft

Earthquake Activity

City Distance Mag. Time & Date
No recent earthquake activity has been reported nearby.
Minimum magnitude displayed is 2.5.

Coastal Water Temperatures

Place Temperature
No Stations Reporting

Nearby Weather Stations